sensor_id;sensor_type;location;lat;lon;timestamp;temperature;humidity
23010;DHT22;11671;49.990;8.028;2023-01-25T00:01:36;4.40;99.90
23010;DHT22;11671;49.990;8.028;2023-01-25T00:04:02;4.40;99.90
23010;DHT22;11671;49.990;8.028;2023-01-25T00:06:27;4.40;99.90
23010;DHT22;11671;49.990;8.028;2023-01-25T00:08:53;4.50;99.90
23010;DHT22;11671;49.990;8.028;2023-01-25T00:11:19;4.50;99.90
23010;DHT22;11671;49.990;8.028;2023-01-25T00:13:45;4.40;99.90
23010;DHT22;11671;49.990;8.028;2023-01-25T00:16:11;4.30;99.90
23010;DHT22;11671;49.990;8.028;2023-01-25T00:18:36;4.40;99.90
23010;DHT22;11671;49.990;8.028;2023-01-25T00:21:16;4.40;99.90
23010;DHT22;11671;49.990;8.028;2023-01-25T00:23:42;4.40;99.90
23010;DHT22;11671;49.990;8.028;2023-01-25T00:26:07;4.40;99.90
23010;DHT22;11671;49.990;8.028;2023-01-25T00:28:33;4.50;99.90
23010;DHT22;11671;49.990;8.028;2023-01-25T00:31:03;4.50;99.90
23010;DHT22;11671;49.990;8.028;2023-01-25T00:33:39;4.50;99.90
23010;DHT22;11671;49.990;8.028;2023-01-25T00:36:32;4.50;99.90
23010;DHT22;11671;49.990;8.028;2023-01-25T00:39:01;4.40;99.90
23010;DHT22;11671;49.990;8.028;2023-01-25T00:41:27;4.50;99.90
23010;DHT22;11671;49.990;8.028;2023-01-25T00:43:52;4.40;99.90
23010;DHT22;11671;49.990;8.028;2023-01-25T00:46:18;4.50;99.90
23010;DHT22;11671;49.990;8.028;2023-01-25T00:48:43;4.50;99.90
23010;DHT22;11671;49.990;8.028;2023-01-25T00:51:09;4.50;99.90
23010;DHT22;11671;49.990;8.028;2023-01-25T00:53:35;4.50;99.90
23010;DHT22;11671;49.990;8.028;2023-01-25T00:56:01;4.50;99.90
23010;DHT22;11671;49.990;8.028;2023-01-25T00:58:27;4.40;99.90
23010;DHT22;11671;49.990;8.028;2023-01-25T01:00:52;4.40;99.90
23010;DHT22;11671;49.990;8.028;2023-01-25T01:03:18;4.40;99.90
23010;DHT22;11671;49.990;8.028;2023-01-25T01:05:44;4.50;99.90
23010;DHT22;11671;49.990;8.028;2023-01-25T01:08:11;4.50;99.90
23010;DHT22;11671;49.990;8.028;2023-01-25T01:10:36;4.50;99.90
23010;DHT22;11671;49.990;8.028;2023-01-25T01:13:02;4.50;99.90
23010;DHT22;11671;49.990;8.028;2023-01-25T01:15:27;4.50;99.90
23010;DHT22;11671;49.990;8.028;2023-01-25T01:17:53;4.50;99.90
23010;DHT22;11671;49.990;8.028;2023-01-25T01:20:18;4.50;99.90
23010;DHT22;11671;49.990;8.028;2023-01-25T01:22:44;4.40;99.90
23010;DHT22;11671;49.990;8.028;2023-01-25T01:25:09;4.50;99.90
23010;DHT22;11671;49.990;8.028;2023-01-25T01:27:35;4.50;99.90
23010;DHT22;11671;49.990;8.028;2023-01-25T01:30:01;4.40;99.90
23010;DHT22;11671;49.990;8.028;2023-01-25T01:32:26;4.40;99.90
23010;DHT22;11671;49.990;8.028;2023-01-25T01:34:52;4.40;99.90
23010;DHT22;11671;49.990;8.028;2023-01-25T01:37:17;4.40;99.90
23010;DHT22;11671;49.990;8.028;2023-01-25T01:39:43;4.40;99.90
23010;DHT22;11671;49.990;8.028;2023-01-25T01:42:08;4.40;99.90
23010;DHT22;11671;49.990;8.028;2023-01-25T01:44:51;4.40;99.90
23010;DHT22;11671;49.990;8.028;2023-01-25T01:47:28;4.40;99.90
23010;DHT22;11671;49.990;8.028;2023-01-25T01:50:02;4.40;99.90
23010;DHT22;11671;49.990;8.028;2023-01-25T01:52:34;4.50;99.90
23010;DHT22;11671;49.990;8.028;2023-01-25T01:55:07;4.50;99.90
23010;DHT22;11671;49.990;8.028;2023-01-25T01:57:36;4.50;99.90
23010;DHT22;11671;49.990;8.028;2023-01-25T02:00:09;4.40;99.90
23010;DHT22;11671;49.990;8.028;2023-01-25T02:02:36;4.40;99.90
23010;DHT22;11671;49.990;8.028;2023-01-25T02:05:04;4.30;99.90
23010;DHT22;11671;49.990;8.028;2023-01-25T02:07:33;4.40;99.90
23010;DHT22;11671;49.990;8.028;2023-01-25T02:10:02;4.40;99.90
23010;DHT22;11671;49.990;8.028;2023-01-25T02:12:28;4.40;99.90
23010;DHT22;11671;49.990;8.028;2023-01-25T02:14:54;4.40;99.90
23010;DHT22;11671;49.990;8.028;2023-01-25T02:17:28;4.40;99.90
23010;DHT22;11671;49.990;8.028;2023-01-25T02:22:44;4.30;99.90
23010;DHT22;11671;49.990;8.028;2023-01-25T02:25:12;4.30;99.90
23010;DHT22;11671;49.990;8.028;2023-01-25T02:27:42;4.30;99.90
23010;DHT22;11671;49.990;8.028;2023-01-25T02:30:10;4.40;99.90
23010;DHT22;11671;49.990;8.028;2023-01-25T02:32:36;4.40;99.90
23010;DHT22;11671;49.990;8.028;2023-01-25T02:35:01;4.40;99.90
23010;DHT22;11671;49.990;8.028;2023-01-25T02:37:27;4.40;99.90
23010;DHT22;11671;49.990;8.028;2023-01-25T02:39:53;4.30;99.90
23010;DHT22;11671;49.990;8.028;2023-01-25T02:42:18;4.30;99.90
23010;DHT22;11671;49.990;8.028;2023-01-25T02:44:44;4.30;99.90
23010;DHT22;11671;49.990;8.028;2023-01-25T02:47:10;4.20;99.90
23010;DHT22;11671;49.990;8.028;2023-01-25T02:49:36;4.20;99.90
23010;DHT22;11671;49.990;8.028;2023-01-25T02:52:03;4.20;99.90
23010;DHT22;11671;49.990;8.028;2023-01-25T02:54:29;4.20;99.90
23010;DHT22;11671;49.990;8.028;2023-01-25T02:56:54;4.20;99.90
23010;DHT22;11671;49.990;8.028;2023-01-25T02:59:20;4.20;99.90
23010;DHT22;11671;49.990;8.028;2023-01-25T03:01:46;4.30;99.90
23010;DHT22;11671;49.990;8.028;2023-01-25T03:04:12;4.20;99.90
23010;DHT22;11671;49.990;8.028;2023-01-25T03:06:38;4.10;99.90
23010;DHT22;11671;49.990;8.028;2023-01-25T03:09:06;4.10;99.90
23010;DHT22;11671;49.990;8.028;2023-01-25T03:11:32;4.10;99.90
23010;DHT22;11671;49.990;8.028;2023-01-25T03:13:57;4.10;99.90
23010;DHT22;11671;49.990;8.028;2023-01-25T03:16:23;4.20;99.90
23010;DHT22;11671;49.990;8.028;2023-01-25T03:18:52;4.20;99.90
23010;DHT22;11671;49.990;8.028;2023-01-25T03:21:19;4.20;99.90
23010;DHT22;11671;49.990;8.028;2023-01-25T03:23:46;4.10;99.90
23010;DHT22;11671;49.990;8.028;2023-01-25T03:26:20;4.00;99.90
23010;DHT22;11671;49.990;8.028;2023-01-25T03:28:46;3.90;99.90
23010;DHT22;11671;49.990;8.028;2023-01-25T03:31:13;3.80;99.90
23010;DHT22;11671;49.990;8.028;2023-01-25T03:33:40;3.80;99.90
23010;DHT22;11671;49.990;8.028;2023-01-25T03:36:06;3.80;99.90
23010;DHT22;11671;49.990;8.028;2023-01-25T03:38:33;3.80;99.90
23010;DHT22;11671;49.990;8.028;2023-01-25T03:40:59;3.90;99.90
23010;DHT22;11671;49.990;8.028;2023-01-25T03:43:24;4.00;99.90
23010;DHT22;11671;49.990;8.028;2023-01-25T03:45:54;4.00;99.90
23010;DHT22;11671;49.990;8.028;2023-01-25T03:48:21;4.00;99.90
23010;DHT22;11671;49.990;8.028;2023-01-25T03:50:51;3.90;99.90
23010;DHT22;11671;49.990;8.028;2023-01-25T03:53:18;3.90;99.90
23010;DHT22;11671;49.990;8.028;2023-01-25T03:56:08;3.90;99.90
23010;DHT22;11671;49.990;8.028;2023-01-25T03:58:37;3.90;99.90
23010;DHT22;11671;49.990;8.028;2023-01-25T04:01:04;3.90;99.90
23010;DHT22;11671;49.990;8.028;2023-01-25T04:03:31;3.90;99.90
23010;DHT22;11671;49.990;8.028;2023-01-25T04:05:57;4.00;99.90
23010;DHT22;11671;49.990;8.028;2023-01-25T04:08:24;4.00;99.90
23010;DHT22;11671;49.990;8.028;2023-01-25T04:10:55;4.00;99.90
23010;DHT22;11671;49.990;8.028;2023-01-25T04:13:22;4.00;99.90
23010;DHT22;11671;49.990;8.028;2023-01-25T04:15:48;4.00;99.90
23010;DHT22;11671;49.990;8.028;2023-01-25T04:18:14;4.00;99.90
23010;DHT22;11671;49.990;8.028;2023-01-25T04:20:40;4.10;99.90
23010;DHT22;11671;49.990;8.028;2023-01-25T04:23:06;4.00;99.90
23010;DHT22;11671;49.990;8.028;2023-01-25T04:25:32;4.00;99.90
23010;DHT22;11671;49.990;8.028;2023-01-25T04:27:58;4.00;99.90
23010;DHT22;11671;49.990;8.028;2023-01-25T04:30:24;3.90;99.90
23010;DHT22;11671;49.990;8.028;2023-01-25T04:32:50;3.90;99.90
23010;DHT22;11671;49.990;8.028;2023-01-25T04:35:16;3.80;99.90
23010;DHT22;11671;49.990;8.028;2023-01-25T04:37:42;3.70;99.90
23010;DHT22;11671;49.990;8.028;2023-01-25T04:40:08;3.80;99.90
23010;DHT22;11671;49.990;8.028;2023-01-25T04:42:34;3.80;99.90
23010;DHT22;11671;49.990;8.028;2023-01-25T04:45:00;3.80;99.90
23010;DHT22;11671;49.990;8.028;2023-01-25T04:47:25;3.90;99.90
23010;DHT22;11671;49.990;8.028;2023-01-25T04:49:51;3.80;99.90
23010;DHT22;11671;49.990;8.028;2023-01-25T04:52:17;3.70;99.90
23010;DHT22;11671;49.990;8.028;2023-01-25T04:54:42;3.80;99.90
23010;DHT22;11671;49.990;8.028;2023-01-25T04:57:08;3.70;99.90
23010;DHT22;11671;49.990;8.028;2023-01-25T04:59:33;3.60;99.90
23010;DHT22;11671;49.990;8.028;2023-01-25T05:01:59;3.70;99.90
23010;DHT22;11671;49.990;8.028;2023-01-25T05:04:24;3.70;99.90
23010;DHT22;11671;49.990;8.028;2023-01-25T05:06:50;3.80;99.90
23010;DHT22;11671;49.990;8.028;2023-01-25T05:09:15;3.80;99.90
23010;DHT22;11671;49.990;8.028;2023-01-25T05:11:42;3.80;99.90
23010;DHT22;11671;49.990;8.028;2023-01-25T05:14:07;3.80;99.90
23010;DHT22;11671;49.990;8.028;2023-01-25T05:16:33;3.90;99.90
23010;DHT22;11671;49.990;8.028;2023-01-25T05:18:58;3.90;99.90
23010;DHT22;11671;49.990;8.028;2023-01-25T05:21:24;3.90;99.90
23010;DHT22;11671;49.990;8.028;2023-01-25T05:24:08;3.90;99.90
23010;DHT22;11671;49.990;8.028;2023-01-25T05:26:34;3.90;99.90
23010;DHT22;11671;49.990;8.028;2023-01-25T05:29:18;3.90;99.90
23010;DHT22;11671;49.990;8.028;2023-01-25T05:31:43;4.00;99.90
23010;DHT22;11671;49.990;8.028;2023-01-25T05:34:09;4.00;99.90
23010;DHT22;11671;49.990;8.028;2023-01-25T05:36:34;3.90;99.90
23010;DHT22;11671;49.990;8.028;2023-01-25T05:39:00;3.90;99.90
23010;DHT22;11671;49.990;8.028;2023-01-25T05:41:25;3.80;99.90
23010;DHT22;11671;49.990;8.028;2023-01-25T05:43:51;3.80;99.90
23010;DHT22;11671;49.990;8.028;2023-01-25T05:46:16;3.70;99.90
23010;DHT22;11671;49.990;8.028;2023-01-25T05:48:42;3.80;99.90
23010;DHT22;11671;49.990;8.028;2023-01-25T05:51:07;3.80;99.90
23010;DHT22;11671;49.990;8.028;2023-01-25T05:53:33;3.90;99.90
23010;DHT22;11671;49.990;8.028;2023-01-25T05:56:05;3.90;99.90
23010;DHT22;11671;49.990;8.028;2023-01-25T05:58:30;3.90;99.90
23010;DHT22;11671;49.990;8.028;2023-01-25T06:00:59;3.90;99.90
23010;DHT22;11671;49.990;8.028;2023-01-25T06:03:25;3.90;99.90
23010;DHT22;11671;49.990;8.028;2023-01-25T06:05:57;3.80;99.90
23010;DHT22;11671;49.990;8.028;2023-01-25T06:08:23;3.80;99.90
23010;DHT22;11671;49.990;8.028;2023-01-25T06:10:49;3.70;99.90
23010;DHT22;11671;49.990;8.028;2023-01-25T06:13:15;3.70;99.90
23010;DHT22;11671;49.990;8.028;2023-01-25T06:15:41;3.70;99.90
23010;DHT22;11671;49.990;8.028;2023-01-25T06:18:06;3.70;99.90
23010;DHT22;11671;49.990;8.028;2023-01-25T06:20:33;3.70;99.90
23010;DHT22;11671;49.990;8.028;2023-01-25T06:22:58;3.70;99.90
23010;DHT22;11671;49.990;8.028;2023-01-25T06:25:24;3.70;99.90
23010;DHT22;11671;49.990;8.028;2023-01-25T06:27:49;3.60;99.90
23010;DHT22;11671;49.990;8.028;2023-01-25T06:30:15;3.60;99.90
23010;DHT22;11671;49.990;8.028;2023-01-25T06:32:41;3.60;99.90
23010;DHT22;11671;49.990;8.028;2023-01-25T06:35:06;3.70;99.90
23010;DHT22;11671;49.990;8.028;2023-01-25T06:37:32;3.70;99.90
23010;DHT22;11671;49.990;8.028;2023-01-25T06:39:58;3.80;99.90
23010;DHT22;11671;49.990;8.028;2023-01-25T06:42:23;3.80;99.90
23010;DHT22;11671;49.990;8.028;2023-01-25T06:44:49;3.60;99.90
23010;DHT22;11671;49.990;8.028;2023-01-25T06:47:15;3.60;99.90
23010;DHT22;11671;49.990;8.028;2023-01-25T06:49:40;3.60;99.90
23010;DHT22;11671;49.990;8.028;2023-01-25T06:52:06;3.60;99.90
23010;DHT22;11671;49.990;8.028;2023-01-25T06:54:32;3.60;99.90
23010;DHT22;11671;49.990;8.028;2023-01-25T06:56:57;3.50;99.90
23010;DHT22;11671;49.990;8.028;2023-01-25T06:59:23;3.50;99.90
23010;DHT22;11671;49.990;8.028;2023-01-25T07:01:48;3.50;99.90
23010;DHT22;11671;49.990;8.028;2023-01-25T07:04:14;3.50;99.90
23010;DHT22;11671;49.990;8.028;2023-01-25T07:06:40;3.40;99.90
23010;DHT22;11671;49.990;8.028;2023-01-25T07:09:09;3.50;99.90
23010;DHT22;11671;49.990;8.028;2023-01-25T07:11:35;3.60;99.90
23010;DHT22;11671;49.990;8.028;2023-01-25T07:14:01;3.70;99.90
23010;DHT22;11671;49.990;8.028;2023-01-25T07:16:27;3.80;99.90
23010;DHT22;11671;49.990;8.028;2023-01-25T07:18:52;3.80;99.90
23010;DHT22;11671;49.990;8.028;2023-01-25T07:21:21;3.80;99.90
23010;DHT22;11671;49.990;8.028;2023-01-25T07:23:50;3.80;99.90
23010;DHT22;11671;49.990;8.028;2023-01-25T07:26:22;3.80;99.90
23010;DHT22;11671;49.990;8.028;2023-01-25T07:28:49;3.80;99.90
23010;DHT22;11671;49.990;8.028;2023-01-25T07:31:16;3.60;99.90
23010;DHT22;11671;49.990;8.028;2023-01-25T07:33:43;3.60;99.90
23010;DHT22;11671;49.990;8.028;2023-01-25T07:36:11;3.70;99.90
23010;DHT22;11671;49.990;8.028;2023-01-25T07:38:37;3.70;99.90
23010;DHT22;11671;49.990;8.028;2023-01-25T07:41:03;3.70;99.90
23010;DHT22;11671;49.990;8.028;2023-01-25T07:43:30;3.50;99.90
23010;DHT22;11671;49.990;8.028;2023-01-25T07:46:03;3.40;99.90
23010;DHT22;11671;49.990;8.028;2023-01-25T07:48:29;3.60;99.90
23010;DHT22;11671;49.990;8.028;2023-01-25T07:51:00;3.80;99.90
23010;DHT22;11671;49.990;8.028;2023-01-25T07:53:37;4.10;99.90
23010;DHT22;11671;49.990;8.028;2023-01-25T07:56:02;4.30;99.90
23010;DHT22;11671;49.990;8.028;2023-01-25T07:58:28;4.50;99.90
23010;DHT22;11671;49.990;8.028;2023-01-25T08:00:54;4.80;99.90
23010;DHT22;11671;49.990;8.028;2023-01-25T08:03:19;4.90;99.90
23010;DHT22;11671;49.990;8.028;2023-01-25T08:05:47;4.70;99.90
23010;DHT22;11671;49.990;8.028;2023-01-25T08:08:12;4.70;99.90
23010;DHT22;11671;49.990;8.028;2023-01-25T08:10:38;4.30;99.90
23010;DHT22;11671;49.990;8.028;2023-01-25T08:13:03;4.10;99.90
23010;DHT22;11671;49.990;8.028;2023-01-25T08:15:29;4.00;99.90
23010;DHT22;11671;49.990;8.028;2023-01-25T08:17:58;3.90;99.90
23010;DHT22;11671;49.990;8.028;2023-01-25T08:20:24;3.80;99.90
23010;DHT22;11671;49.990;8.028;2023-01-25T08:22:51;3.60;99.90
23010;DHT22;11671;49.990;8.028;2023-01-25T08:25:16;3.60;99.90
23010;DHT22;11671;49.990;8.028;2023-01-25T08:27:42;3.50;99.90
23010;DHT22;11671;49.990;8.028;2023-01-25T08:30:08;3.50;99.90
23010;DHT22;11671;49.990;8.028;2023-01-25T08:32:34;3.60;99.90
23010;DHT22;11671;49.990;8.028;2023-01-25T08:35:00;3.60;99.90
23010;DHT22;11671;49.990;8.028;2023-01-25T08:37:25;3.90;99.90
23010;DHT22;11671;49.990;8.028;2023-01-25T08:39:54;4.30;99.90
23010;DHT22;11671;49.990;8.028;2023-01-25T08:42:21;4.20;99.90
23010;DHT22;11671;49.990;8.028;2023-01-25T08:44:47;4.10;99.90
23010;DHT22;11671;49.990;8.028;2023-01-25T08:47:12;4.00;99.90
23010;DHT22;11671;49.990;8.028;2023-01-25T08:49:38;4.00;99.90
23010;DHT22;11671;49.990;8.028;2023-01-25T08:52:04;4.00;99.90
23010;DHT22;11671;49.990;8.028;2023-01-25T08:54:30;3.70;99.90
23010;DHT22;11671;49.990;8.028;2023-01-25T08:56:56;3.70;99.90
23010;DHT22;11671;49.990;8.028;2023-01-25T08:59:22;3.60;99.90
23010;DHT22;11671;49.990;8.028;2023-01-25T09:01:47;3.50;99.90
23010;DHT22;11671;49.990;8.028;2023-01-25T09:04:13;3.50;99.90
23010;DHT22;11671;49.990;8.028;2023-01-25T09:06:39;3.40;99.90
23010;DHT22;11671;49.990;8.028;2023-01-25T09:09:05;3.40;99.90
23010;DHT22;11671;49.990;8.028;2023-01-25T09:11:33;3.50;99.90
23010;DHT22;11671;49.990;8.028;2023-01-25T09:13:59;3.60;99.90
23010;DHT22;11671;49.990;8.028;2023-01-25T09:16:25;3.70;99.90
23010;DHT22;11671;49.990;8.028;2023-01-25T09:18:55;3.70;99.90
23010;DHT22;11671;49.990;8.028;2023-01-25T09:21:21;3.70;99.90
23010;DHT22;11671;49.990;8.028;2023-01-25T09:23:48;3.70;99.90
23010;DHT22;11671;49.990;8.028;2023-01-25T09:26:15;3.80;99.90
23010;DHT22;11671;49.990;8.028;2023-01-25T09:28:41;3.70;99.90
23010;DHT22;11671;49.990;8.028;2023-01-25T09:31:08;3.80;99.90
23010;DHT22;11671;49.990;8.028;2023-01-25T09:33:39;3.80;99.90
23010;DHT22;11671;49.990;8.028;2023-01-25T09:36:05;3.70;99.90
23010;DHT22;11671;49.990;8.028;2023-01-25T09:38:31;3.60;99.90
23010;DHT22;11671;49.990;8.028;2023-01-25T09:43:39;3.60;99.90
23010;DHT22;11671;49.990;8.028;2023-01-25T09:54:58;3.80;99.90
23010;DHT22;11671;49.990;8.028;2023-01-25T09:57:35;3.90;99.90
23010;DHT22;11671;49.990;8.028;2023-01-25T10:00:16;3.80;99.90
23010;DHT22;11671;49.990;8.028;2023-01-25T10:05:19;3.90;99.90
23010;DHT22;11671;49.990;8.028;2023-01-25T10:08:07;3.90;99.90
23010;DHT22;11671;49.990;8.028;2023-01-25T10:10:40;3.90;99.90
23010;DHT22;11671;49.990;8.028;2023-01-25T10:13:12;4.00;99.90
23010;DHT22;11671;49.990;8.028;2023-01-25T10:15:43;4.00;99.90
23010;DHT22;11671;49.990;8.028;2023-01-25T10:18:20;4.10;99.90
23010;DHT22;11671;49.990;8.028;2023-01-25T10:20:54;4.10;99.90
23010;DHT22;11671;49.990;8.028;2023-01-25T10:23:48;4.00;99.90
23010;DHT22;11671;49.990;8.028;2023-01-25T10:26:22;4.10;99.90
23010;DHT22;11671;49.990;8.028;2023-01-25T10:29:12;4.10;99.90
23010;DHT22;11671;49.990;8.028;2023-01-25T10:31:46;4.20;99.90
23010;DHT22;11671;49.990;8.028;2023-01-25T10:34:20;4.00;99.90
23010;DHT22;11671;49.990;8.028;2023-01-25T10:36:49;3.80;99.90
23010;DHT22;11671;49.990;8.028;2023-01-25T10:39:18;3.90;99.90
23010;DHT22;11671;49.990;8.028;2023-01-25T10:41:49;4.00;99.90
23010;DHT22;11671;49.990;8.028;2023-01-25T10:44:15;4.10;99.90
23010;DHT22;11671;49.990;8.028;2023-01-25T10:49:42;4.30;99.90
23010;DHT22;11671;49.990;8.028;2023-01-25T10:52:25;4.10;99.90
23010;DHT22;11671;49.990;8.028;2023-01-25T10:55:17;4.00;99.90
23010;DHT22;11671;49.990;8.028;2023-01-25T10:57:44;3.80;99.90
23010;DHT22;11671;49.990;8.028;2023-01-25T11:02:47;4.10;99.90
23010;DHT22;11671;49.990;8.028;2023-01-25T11:07:55;4.30;99.90
23010;DHT22;11671;49.990;8.028;2023-01-25T11:10:28;4.30;99.90
23010;DHT22;11671;49.990;8.028;2023-01-25T11:13:27;4.30;99.90
23010;DHT22;11671;49.990;8.028;2023-01-25T11:18:32;4.40;99.90
23010;DHT22;11671;49.990;8.028;2023-01-25T11:21:12;4.40;99.90
23010;DHT22;11671;49.990;8.028;2023-01-25T11:23:40;4.30;99.90
23010;DHT22;11671;49.990;8.028;2023-01-25T11:26:16;4.30;99.90
23010;DHT22;11671;49.990;8.028;2023-01-25T11:28:44;4.20;99.90
23010;DHT22;11671;49.990;8.028;2023-01-25T11:31:11;4.30;99.90
23010;DHT22;11671;49.990;8.028;2023-01-25T11:33:39;4.20;99.90
23010;DHT22;11671;49.990;8.028;2023-01-25T11:39:20;4.30;99.90
23010;DHT22;11671;49.990;8.028;2023-01-25T11:52:57;4.30;99.90
23010;DHT22;11671;49.990;8.028;2023-01-25T11:55:42;4.30;99.90
23010;DHT22;11671;49.990;8.028;2023-01-25T11:58:33;4.10;99.90
23010;DHT22;11671;49.990;8.028;2023-01-25T12:01:09;4.00;99.90
23010;DHT22;11671;49.990;8.028;2023-01-25T12:06:41;4.00;99.90
23010;DHT22;11671;49.990;8.028;2023-01-25T12:12:30;3.80;99.90
23010;DHT22;11671;49.990;8.028;2023-01-25T12:23:35;3.80;99.90
23010;DHT22;11671;49.990;8.028;2023-01-25T12:31:41;4.00;99.90
23010;DHT22;11671;49.990;8.028;2023-01-25T12:34:37;4.20;99.90
23010;DHT22;11671;49.990;8.028;2023-01-25T12:39:46;4.40;99.90
23010;DHT22;11671;49.990;8.028;2023-01-25T12:42:19;4.50;99.90
23010;DHT22;11671;49.990;8.028;2023-01-25T12:45:00;4.40;99.90
23010;DHT22;11671;49.990;8.028;2023-01-25T12:47:47;4.30;99.90
23010;DHT22;11671;49.990;8.028;2023-01-25T12:55:42;4.40;99.90
23010;DHT22;11671;49.990;8.028;2023-01-25T12:58:20;4.40;99.90
23010;DHT22;11671;49.990;8.028;2023-01-25T13:01:05;4.30;99.90
23010;DHT22;11671;49.990;8.028;2023-01-25T13:11:41;3.80;99.90
23010;DHT22;11671;49.990;8.028;2023-01-25T13:16:50;3.90;99.90
23010;DHT22;11671;49.990;8.028;2023-01-25T13:21:58;3.90;99.90
23010;DHT22;11671;49.990;8.028;2023-01-25T13:24:26;3.90;99.90
23010;DHT22;11671;49.990;8.028;2023-01-25T13:31:54;4.20;99.90
23010;DHT22;11671;49.990;8.028;2023-01-25T13:37:18;4.30;99.90
23010;DHT22;11671;49.990;8.028;2023-01-25T13:39:46;4.40;99.90
23010;DHT22;11671;49.990;8.028;2023-01-25T13:44:42;4.40;99.90
23010;DHT22;11671;49.990;8.028;2023-01-25T13:47:14;4.00;99.90
23010;DHT22;11671;49.990;8.028;2023-01-25T13:50:04;3.60;99.90
23010;DHT22;11671;49.990;8.028;2023-01-25T13:52:32;3.50;99.90
23010;DHT22;11671;49.990;8.028;2023-01-25T13:54:59;3.60;99.90
23010;DHT22;11671;49.990;8.028;2023-01-25T13:57:30;3.60;99.90
23010;DHT22;11671;49.990;8.028;2023-01-25T13:59:59;3.60;99.90
23010;DHT22;11671;49.990;8.028;2023-01-25T14:02:26;3.60;99.90
23010;DHT22;11671;49.990;8.028;2023-01-25T14:04:52;3.50;99.90
23010;DHT22;11671;49.990;8.028;2023-01-25T14:07:22;3.70;99.90
23010;DHT22;11671;49.990;8.028;2023-01-25T14:09:49;4.00;99.90
23010;DHT22;11671;49.990;8.028;2023-01-25T14:12:39;4.00;99.90
23010;DHT22;11671;49.990;8.028;2023-01-25T14:15:25;4.10;99.90
23010;DHT22;11671;49.990;8.028;2023-01-25T14:18:14;4.20;99.90
23010;DHT22;11671;49.990;8.028;2023-01-25T14:20:43;4.30;99.90
23010;DHT22;11671;49.990;8.028;2023-01-25T14:23:27;4.30;99.90
23010;DHT22;11671;49.990;8.028;2023-01-25T14:25:55;4.20;99.90
23010;DHT22;11671;49.990;8.028;2023-01-25T14:28:24;4.20;99.90
23010;DHT22;11671;49.990;8.028;2023-01-25T14:30:57;4.10;99.90
23010;DHT22;11671;49.990;8.028;2023-01-25T14:33:30;4.10;99.90
23010;DHT22;11671;49.990;8.028;2023-01-25T14:36:08;4.00;99.90
23010;DHT22;11671;49.990;8.028;2023-01-25T14:38:36;3.90;99.90
23010;DHT22;11671;49.990;8.028;2023-01-25T14:43:41;4.00;99.90
23010;DHT22;11671;49.990;8.028;2023-01-25T14:46:32;3.90;99.90
23010;DHT22;11671;49.990;8.028;2023-01-25T14:49:18;3.90;99.90
23010;DHT22;11671;49.990;8.028;2023-01-25T14:52:02;3.80;99.90
23010;DHT22;11671;49.990;8.028;2023-01-25T14:54:31;3.90;99.90
23010;DHT22;11671;49.990;8.028;2023-01-25T14:57:06;3.90;99.90
23010;DHT22;11671;49.990;8.028;2023-01-25T14:59:42;3.90;99.90
23010;DHT22;11671;49.990;8.028;2023-01-25T15:02:25;3.90;99.90
23010;DHT22;11671;49.990;8.028;2023-01-25T15:04:57;3.90;99.90
23010;DHT22;11671;49.990;8.028;2023-01-25T15:10:21;3.90;99.90
23010;DHT22;11671;49.990;8.028;2023-01-25T15:15:25;3.70;99.90
23010;DHT22;11671;49.990;8.028;2023-01-25T15:17:52;3.60;99.90
23010;DHT22;11671;49.990;8.028;2023-01-25T15:20:38;3.50;99.90
23010;DHT22;11671;49.990;8.028;2023-01-25T15:23:24;3.40;99.90
23010;DHT22;11671;49.990;8.028;2023-01-25T15:25:55;3.50;99.90
23010;DHT22;11671;49.990;8.028;2023-01-25T15:28:24;3.50;99.90
23010;DHT22;11671;49.990;8.028;2023-01-25T15:30:53;3.50;99.90
23010;DHT22;11671;49.990;8.028;2023-01-25T15:33:21;3.50;99.90
23010;DHT22;11671;49.990;8.028;2023-01-25T15:35:49;3.50;99.90
23010;DHT22;11671;49.990;8.028;2023-01-25T15:38:18;3.60;99.90
23010;DHT22;11671;49.990;8.028;2023-01-25T15:40:47;3.70;99.90
23010;DHT22;11671;49.990;8.028;2023-01-25T15:43:17;3.60;99.90
23010;DHT22;11671;49.990;8.028;2023-01-25T15:45:45;3.50;99.90
23010;DHT22;11671;49.990;8.028;2023-01-25T15:48:15;3.50;99.90
23010;DHT22;11671;49.990;8.028;2023-01-25T15:50:42;3.60;99.90
23010;DHT22;11671;49.990;8.028;2023-01-25T15:53:16;3.70;99.90
23010;DHT22;11671;49.990;8.028;2023-01-25T15:55:44;3.70;99.90
23010;DHT22;11671;49.990;8.028;2023-01-25T15:58:25;3.70;99.90
23010;DHT22;11671;49.990;8.028;2023-01-25T16:00:54;3.70;99.90
23010;DHT22;11671;49.990;8.028;2023-01-25T16:03:19;3.70;99.90
23010;DHT22;11671;49.990;8.028;2023-01-25T16:05:50;3.70;99.90
23010;DHT22;11671;49.990;8.028;2023-01-25T16:08:18;3.50;99.90
23010;DHT22;11671;49.990;8.028;2023-01-25T16:10:45;3.60;99.90
23010;DHT22;11671;49.990;8.028;2023-01-25T16:13:11;3.70;99.90
23010;DHT22;11671;49.990;8.028;2023-01-25T16:15:37;3.70;99.90
23010;DHT22;11671;49.990;8.028;2023-01-25T16:18:03;3.80;99.90
23010;DHT22;11671;49.990;8.028;2023-01-25T16:20:29;3.80;99.90
23010;DHT22;11671;49.990;8.028;2023-01-25T16:22:55;3.90;99.90
23010;DHT22;11671;49.990;8.028;2023-01-25T16:25:21;3.90;99.90
23010;DHT22;11671;49.990;8.028;2023-01-25T16:27:46;3.80;99.90
23010;DHT22;11671;49.990;8.028;2023-01-25T16:30:23;3.80;99.90
23010;DHT22;11671;49.990;8.028;2023-01-25T16:32:55;3.70;99.90
23010;DHT22;11671;49.990;8.028;2023-01-25T16:35:21;3.60;99.90
23010;DHT22;11671;49.990;8.028;2023-01-25T16:37:47;3.50;99.90
23010;DHT22;11671;49.990;8.028;2023-01-25T16:40:24;3.50;99.90
23010;DHT22;11671;49.990;8.028;2023-01-25T16:42:50;3.50;99.90
23010;DHT22;11671;49.990;8.028;2023-01-25T16:45:16;3.40;99.90
23010;DHT22;11671;49.990;8.028;2023-01-25T16:47:44;3.40;99.90
23010;DHT22;11671;49.990;8.028;2023-01-25T16:50:15;3.40;99.90
23010;DHT22;11671;49.990;8.028;2023-01-25T16:52:41;3.40;99.90
23010;DHT22;11671;49.990;8.028;2023-01-25T16:55:12;3.40;99.90
23010;DHT22;11671;49.990;8.028;2023-01-25T16:57:39;3.50;99.90
23010;DHT22;11671;49.990;8.028;2023-01-25T17:00:07;3.50;99.90
23010;DHT22;11671;49.990;8.028;2023-01-25T17:02:36;3.60;99.90
23010;DHT22;11671;49.990;8.028;2023-01-25T17:05:02;3.50;99.90
23010;DHT22;11671;49.990;8.028;2023-01-25T17:07:28;3.50;99.90
23010;DHT22;11671;49.990;8.028;2023-01-25T17:09:53;3.40;99.90
23010;DHT22;11671;49.990;8.028;2023-01-25T17:12:19;3.40;99.90
23010;DHT22;11671;49.990;8.028;2023-01-25T17:14:44;3.40;99.90
23010;DHT22;11671;49.990;8.028;2023-01-25T17:17:10;3.40;99.90
23010;DHT22;11671;49.990;8.028;2023-01-25T17:19:35;3.30;99.90
23010;DHT22;11671;49.990;8.028;2023-01-25T17:22:01;3.10;99.90
23010;DHT22;11671;49.990;8.028;2023-01-25T17:24:27;3.10;99.90
23010;DHT22;11671;49.990;8.028;2023-01-25T17:26:56;3.10;99.90
23010;DHT22;11671;49.990;8.028;2023-01-25T17:29:22;3.10;99.90
23010;DHT22;11671;49.990;8.028;2023-01-25T17:31:48;3.10;99.90
23010;DHT22;11671;49.990;8.028;2023-01-25T17:34:14;3.00;99.90
23010;DHT22;11671;49.990;8.028;2023-01-25T17:36:43;3.00;99.90
23010;DHT22;11671;49.990;8.028;2023-01-25T17:39:11;2.90;99.90